首页
METAR-TAF:

METAR-TAF

机场 :

巴勒莫, 意大利

纬度: 38-11N, 经度: 013-06E, 海拔: 21米

当前天气观测

该预报发布于43分钟前的01:20 UTC
风速1节,风向多变
温度 18°C
湿度 83%
气压 1013 hPa
能见度10公里或以上
少量云层高于7000英尺

METAR: LICJ 250120Z VRB01KT 9999 FEW070 18/15 Q1013

时间: 04:03 (02:03 UTC)

预报

该预报发布于3小时和3分钟前的23:00 UTC
预报有效从25日的 00点(UTC)到 25日的 24点(UTC)
风速5节,风向多变
能见度10公里或以上
散云层高于3000英尺
短暂存在
从 25日的 12点(UTC)到 25日的 18点(UTC)
成为
从 25日的 10点(UTC)到 25日的 12点(UTC)
风速14节,风向北转东北
成为
从 25日的 18点(UTC)到 25日的 20点(UTC)
风速5节,风向多变

TAF: LICJ 242300Z 2500/2524 VRB05KT 9999 SCT030 TEMPO 2512/2518 RA BECMG 2510/2512 03014KT BECMG 2518/2520 VRB05KT

超过4000个机场的气象观测和天气预报(METAR&TAF报告)。

可查询的气象台以黄色和红色小点在地图上表示。

将鼠标移到小点上方,可查看气象台名称。

然后点击查看天气观测和预报。

如需切换地图:点击带黑十字的绿色按钮放大地图;点击带横线的绿色按钮缩小地图;或者点击绿色箭头查看邻近地区的地图。


METAR-TAF: